Weather at Presque Isle County Airport

Public forecast

Using degrees Fahrenheit for public forecast. Weather courtesy of forecast.io.

Current aviation weather report (METAR) for Presque Isle County Airport

Retrieved 2021/10/18 07:35 UTC (12 minutes ago):

KPZQ 180735Z AUTO 29007KT 10SM BKN036 OVC047 09/05 A3002 RMK AO2 T00870051

Closest aviation forecast (TAF) to Presque Isle County Airport

Closest forecast is Alpena County Regional Airport, 22.5 nm (41.6 km) SSE. Retrieved 2021/10/18 06:22 UTC (1 hour ago):

TAF KAPN 180520Z 1806/1906 VRB03KT P6SM SKC FM181500 32008KT P6SM SKC FM190000 VRB03KT P6SM SKC